หน้าหลัก
METAR-TAF:

METAR-TAF

ท่าอากาศยาน :

Tela, ฮอนดูรัส

ละติจูด: 15-43N, ลองจิจูด: 087-29W, ความสูง: 3 ม.

การสังเกตสภาพอากาศปัจจุบัน

รายงานได้ทำขึ้นเมื่อ 5 ชั่วโมงและ 27 นาทีที่แล้ว ณ เวลา 06:00 UTC
ลมสงบ
อุณหภูมิ 27°C
ความชื้น 94%
ความกดอากาศ 1004 hPa
ทัศนวิสัย 10 กม. หรือมากกว่า
มีเมฆกระจายเป็นบางส่วนที่ความสูง 2400 ฟุต
มีเมฆเป็นส่วนมากเว้นเป็นระยะที่ความสูง 7000 ฟุต

METAR: MHTE 170600Z 00000KT 9999 SCT024 BKN070 27/26 Q1004 A2965

เวลา: 05:27 (11:27 UTC)


TAF: หายไป

สังเกตการณ์สภาพอากาศและพยากรณ์อากาศของสนามบินมากกว่า 4000 แห่ง (รายงาน METAR และ TAF).

สถานีที่ดูได้จะแสดงไว้ด้วยจุดสีเหลืองและสีแดงบนแผนที่.

เลื่อนเมาส์ไปเหนือจุดเพื่อดูชื่อสถานี.

แล้วคลิกเพื่อดูสังเกตการณ์และการพยากรณ์สภาพอากาศ.

ในการเปลี่ยนแผนที่: คลิกที่ปุ่มสีเขียวที่มีกากบาทสีดำเพื่อซูมเข้า; ที่ปุ่มสีเขียวที่มีขีดเพื่อซูมออก; หรือที่ลูกศรสีเขียวเพื่อไปยังแผนที่ที่อยู่ติดกัน.


METAR-TAF: